Latest Weather Observations for Melville Water

IDW60901

Issued at 11:51 pm WST Thursday 28 May 2020 (issued every 10 minutes, with the page automatically refreshed every 10 minutes)

About weather observations | Map of Perth area stations | Latest observations for Perth area | Other Formats
Station Details ID: 009091 Name: INNER DOLPHIN PYLON Lat: -31.99 Lon: 115.83 Height: 0.0 m
Data from the previous 72 hours. | See also: Recent months at Melville Water
Date/Time
WST
Temp
°C
App
Temp
°C
Dew
Point
°C
Rel
Hum
%
Delta-T
°C
Wind Press
QNH
hPa
Press
MSL
hPa
Rain since
9am
mm
Dir  Spd
km/h
Gust
km/h
Spd
kts
Gust
kts
28/11:30pm - - - - - N 19 26 10 14 - - -
28/11:00pm - - - - - N 15 19 8 10 - - -
28/10:30pm - - - - - NNW 11 20 6 11 - - -
28/10:00pm - - - - - NW 17 26 9 14 - - -
28/09:30pm - - - - - NW 13 22 7 12 - - -
28/09:00pm - - - - - NW 13 20 7 11 - - -
28/08:30pm - - - - - NW 13 20 7 11 - - -
28/08:00pm - - - - - WNW 13 19 7 10 - - -
28/07:30pm - - - - - WNW 15 24 8 13 - - -
28/07:00pm - - - - - WNW 13 20 7 11 - - -
28/06:30pm - - - - - WNW 15 22 8 12 - - -
28/06:00pm - - - - - WNW 17 22 9 12 - - -
28/05:30pm - - - - - WNW 17 26 9 14 - - -
28/05:00pm - - - - - WNW 19 30 10 16 - - -
28/04:30pm - - - - - WNW 17 32 9 17 - - -
28/04:00pm - - - - - WNW 20 30 11 16 - - -
28/03:30pm - - - - - WNW 22 32 12 17 - - -
28/03:00pm - - - - - WNW 24 35 13 19 - - -
28/02:30pm - - - - - WNW 20 32 11 17 - - -
28/02:00pm - - - - - WNW 19 30 10 16 - - -
28/01:30pm - - - - - W 20 30 11 16 - - -
28/01:00pm - - - - - WNW 19 32 10 17 - - -
28/12:30pm - - - - - NW 9 26 5 14 - - -
28/12:00pm - - - - - N 9 19 5 10 - - -
28/11:30am - - - - - N 11 19 6 10 - - -
28/11:00am - - - - - CALM 0 6 0 3 - - -
28/10:30am - - - - - W 22 33 12 18 - - -
28/10:00am - - - - - N 6 11 3 6 - - -
28/09:30am - - - - - NNW 13 20 7 11 - - -
28/09:00am - - - - - N 15 19 8 10 - - -
28/08:30am - - - - - N 13 17 7 9 - - -
28/08:00am - - - - - N 11 17 6 9 - - -
28/07:30am - - - - - N 17 26 9 14 - - -
28/07:00am - - - - - N 17 20 9 11 - - -
28/06:30am - - - - - N 15 20 8 11 - - -
28/06:00am - - - - - N 11 15 6 8 - - -
28/05:30am - - - - - N 11 13 6 7 - - -
28/05:00am - - - - - N 15 19 8 10 - - -
28/04:30am - - - - - N 15 19 8 10 - - -
28/04:00am - - - - - NE 6 9 3 5 - - -
28/03:30am - - - - - NNE 7 13 4 7 - - -
28/03:00am - - - - - NE 7 11 4 6 - - -
28/02:30am - - - - - NNE 13 15 7 8 - - -
28/02:00am - - - - - NNW 11 17 6 9 - - -
28/01:30am - - - - - NNE 6 7 3 4 - - -
28/01:00am - - - - - NNE 13 17 7 9 - - -
28/12:30am - - - - - ENE 2 9 1 5 - - -
28/12:00am - - - - - S 7 20 4 11 - - -
 
Date/Time
WST
Temp
°C
App
Temp
°C
Dew
Point
°C
Rel
Hum
%
Delta-T
°C
Wind Press
QNH
hPa
Press
MSL
hPa
Rain since
9am
mm
Dir  Spd
km/h
Gust
km/h
Spd
kts
Gust
kts
27/11:30pm - - - - - ENE 9 13 5 7 - - -
27/11:00pm - - - - - ESE 7 11 4 6 - - -
27/10:30pm - - - - - ENE 4 6 2 3 - - -
27/10:00pm - - - - - NE 11 17 6 9 - - -
27/09:30pm - - - - - NE 4 7 2 4 - - -
27/09:00pm - - - - - NW 2 6 1 3 - - -
27/08:30pm - - - - - WNW 6 13 3 7 - - -
27/08:00pm - - - - - W 9 15 5 8 - - -
27/07:30pm - - - - - W 13 22 7 12 - - -
27/07:00pm - - - - - W 13 17 7 9 - - -
27/06:30pm - - - - - WSW 13 20 7 11 - - -
27/06:00pm - - - - - WSW 15 20 8 11 - - -
27/05:30pm - - - - - W 6 11 3 6 - - -
27/05:00pm - - - - - WNW 9 15 5 8 - - -
27/04:30pm - - - - - W 17 22 9 12 - - -
27/04:00pm - - - - - W 13 24 7 13 - - -
27/03:30pm - - - - - W 15 24 8 13 - - -
27/03:00pm - - - - - W 17 24 9 13 - - -
27/02:30pm - - - - - W 22 32 12 17 - - -
27/02:00pm - - - - - SW 20 28 11 15 - - -
27/01:30pm - - - - - WSW 20 33 11 18 - - -
27/01:00pm - - - - - W 22 30 12 16 - - -
27/12:30pm - - - - - WNW 15 22 8 12 - - -
27/12:00pm - - - - - NNW 13 17 7 9 - - -
27/11:30am - - - - - NNW 15 19 8 10 - - -
27/11:00am - - - - - N 13 19 7 10 - - -
27/10:30am - - - - - NNE 7 13 4 7 - - -
27/10:00am - - - - - N 7 15 4 8 - - -
27/09:30am - - - - - N 13 17 7 9 - - -
27/09:00am - - - - - N 15 19 8 10 - - -
27/08:30am - - - - - N 7 13 4 7 - - -
27/08:00am - - - - - NNW 9 13 5 7 - - -
27/07:30am - - - - - NNW 13 19 7 10 - - -
27/07:00am - - - - - NNW 13 19 7 10 - - -
27/06:30am - - - - - NNW 15 19 8 10 - - -
27/06:00am - - - - - NNW 11 17 6 9 - - -
27/05:30am - - - - - NNW 15 20 8 11 - - -
27/05:00am - - - - - NNW 13 19 7 10 - - -
27/04:30am - - - - - N 9 13 5 7 - - -
27/04:00am - - - - - N 9 13 5 7 - - -
27/03:30am - - - - - N 13 17 7 9 - - -
27/03:00am - - - - - N 15 19 8 10 - - -
27/02:30am - - - - - N 13 15 7 8 - - -
27/02:00am - - - - - N 2 6 1 3 - - -
27/01:30am - - - - - NNE 9 15 5 8 - - -
27/01:00am - - - - - NE 7 13 4 7 - - -
27/12:30am - - - - - NNE 6 9 3 5 - - -
27/12:00am - - - - - NNE 13 15 7 8 - - -
 
Date/Time
WST
Temp
°C
App
Temp
°C
Dew
Point
°C
Rel
Hum
%
Delta-T
°C
Wind Press
QNH
hPa
Press
MSL
hPa
Rain since
9am
mm
Dir  Spd
km/h
Gust
km/h
Spd
kts
Gust
kts
26/11:30pm - - - - - NNE 11 15 6 8 - - -
26/11:00pm - - - - - NNE 15 19 8 10 - - -
26/10:30pm - - - - - NE 2 6 1 3 - - -
26/10:00pm - - - - - NE 7 9 4 5 - - -
26/09:30pm - - - - - NE 7 9 4 5 - - -
26/09:00pm - - - - - NE 9 11 5 6 - - -
26/08:30pm - - - - - ENE 2 7 1 4 - - -
26/08:00pm - - - - - SW 11 15 6 8 - - -
26/07:30pm - - - - - CALM 0 0 0 0 - - -
26/07:00pm - - - - - CALM 0 4 0 2 - - -
26/06:30pm - - - - - CALM 0 4 0 2 - - -
26/06:00pm - - - - - NW 6 9 3 5 - - -
26/05:30pm - - - - - NW 2 6 1 3 - - -
26/05:00pm - - - - - CALM 0 0 0 0 - - -
26/04:30pm - - - - - CALM 0 0 0 0 - - -
26/04:00pm - - - - - CALM 0 0 0 0 - - -
26/03:30pm - - - - - CALM 0 0 0 0 - - -
26/03:00pm - - - - - CALM 0 0 0 0 - - -
26/02:30pm - - - - - CALM 0 0 0 0 - - -
26/02:00pm - - - - - CALM 0 6 0 3 - - -
26/01:30pm - - - - - CALM 0 0 0 0 - - -
26/01:00pm - - - - - CALM 0 0 0 0 - - -
26/12:30pm - - - - - W 2 7 1 4 - - -
26/12:00pm - - - - - CALM 0 2 0 1 - - -
26/11:30am - - - - - CALM 0 0 0 0 - - -
26/11:00am - - - - - CALM 0 0 0 0 - - -
26/10:30am - - - - - CALM 0 0 0 0 - - -
26/10:00am - - - - - CALM 0 4 0 2 - - -
26/09:30am - - - - - NE 7 11 4 6 - - -
26/09:00am - - - - - NE 11 15 6 8 - - -
26/08:30am - - - - - NE 6 7 3 4 - - -
26/08:00am - - - - - NE 11 13 6 7 - - -
26/07:30am - - - - - NE 4 9 2 5 - - -
26/07:00am - - - - - NNE 4 6 2 3 - - -
26/06:30am - - - - - CALM 0 4 0 2 - - -
26/06:00am - - - - - NNE 4 7 2 4 - - -
26/05:30am - - - - - ENE 7 11 4 6 - - -
26/05:00am - - - - - ENE 6 9 3 5 - - -
26/04:30am - - - - - NE 11 13 6 7 - - -
26/04:00am - - - - - NE 2 6 1 3 - - -
26/03:30am - - - - - ENE 9 11 5 6 - - -
26/03:00am - - - - - E 6 9 3 5 - - -
26/02:30am - - - - - ENE 2 7 1 4 - - -
26/02:00am - - - - - E 11 17 6 9 - - -
26/01:30am - - - - - SSE 7 13 4 7 - - -
26/01:00am - - - - - SW 30 43 16 23 - - -
26/12:48am - - - - - SW 28 50 15 27 - - -
26/12:30am - - - - - SW 17 30 9 16 - - -
26/12:00am - - - - - ENE 9 15 5 8 - - -

Latest Capital City Observations: Canberra | Sydney | Melbourne | Brisbane | Adelaide | Perth | Hobart | Darwin

Other formats

Comma delimited format used in spreadsheet applications
http://www.bom.gov.au/fwo/IDW60901/IDW60901.95620.axf

JavaScript Object Notation format (JSON) in row-major order
http://www.bom.gov.au/fwo/IDW60901/IDW60901.95620.json

Data quality

Most of these data are generated automatically and are frequently updated. Quality checks on data are not normally performed. It is possible for incorrect values to appear. Refer to information at About Latest Weather Observations and please check the disclaimer before using these data.